Forside
METAR-TAF:

METAR-TAF

Lufthavne :

Doncaster, England

Breddekreds: 53-29N, længdekreds: 001-00W, højde: 17 m

Aktuelle vejr

Denne rapport blev lavet for 36 minutter siden, kl. 13:50 UTC
Vind 6 kt fra nordøst, varierende mellem nordnordøst og øst
Temperatur 8°C
Fugtighed 66%
Tryk 1034 hPa
Sigt 10 km eller mere
Brudte skyer i en højde af 3400 ft

METAR: EGCN 311350Z 05006KT 020V080 9999 BKN034 08/02 Q1034

Tid: 15:26 (14:26 UTC)

Vejrudsigter

Denne rapport blev lavet for 3 timer og 27 minutter siden, kl. 10:59 UTC
Foreløbig gælder fra 31 på 12 UTC til 01 på 12 UTC
Vind 9 kt fra nordnordøst
Sigt 10 km eller mere
Spredte skyer i en højde af 3000 ft
Sandsynlighed 30% :
Midlertidig
fra 31 på 12 UTC til 31 på 21 UTC
Sigt: 9000 m
Brudte skyer i en højde af 1200 ft
let regnbyger

TAF: EGCN 311059Z 3112/0112 02009KT 9999 SCT030 PROB30 TEMPO 3112/3121 9000 -SHRA BKN012

Vejrobservationer og prognoser fra mere end 4000 lufthavne (METAR og TAF).

De gule og røde prikker repræsenterer de meteorologiske stationer.

Flyt musen over at se navnet på stationen.

Så klik over at se vejr observationer og prognoser.

At skifte det kort: Klik på de grønne knapper med et sort kors for at zoome ind; på den grønne knap med en bindestreg for at zoome ud; eller på de grønne pile for tilstødende kort.


METAR-TAF: